sensor_id;sensor_type;location;lat;lon;timestamp;P1;durP1;ratioP1;P2;durP2;ratioP2
37955;SDS011;23776;51.592;7.180;2023-04-03T00:00:46;14.35;;;7.15;;
37955;SDS011;23776;51.592;7.180;2023-04-03T00:03:14;13.95;;;6.50;;
37955;SDS011;23776;51.592;7.180;2023-04-03T00:05:40;12.65;;;5.95;;
37955;SDS011;23776;51.592;7.180;2023-04-03T00:08:06;14.18;;;6.65;;
37955;SDS011;23776;51.592;7.180;2023-04-03T00:10:34;9.77;;;5.15;;
37955;SDS011;23776;51.592;7.180;2023-04-03T00:13:00;10.95;;;5.10;;
37955;SDS011;23776;51.592;7.180;2023-04-03T00:15:26;8.55;;;4.85;;
37955;SDS011;23776;51.592;7.180;2023-04-03T00:17:52;7.60;;;4.35;;
37955;SDS011;23776;51.592;7.180;2023-04-03T00:20:18;11.48;;;3.72;;
37955;SDS011;23776;51.592;7.180;2023-04-03T00:22:43;13.07;;;3.65;;
37955;SDS011;23776;51.592;7.180;2023-04-03T00:25:09;11.68;;;3.88;;
37955;SDS011;23776;51.592;7.180;2023-04-03T00:27:36;8.18;;;3.78;;
37955;SDS011;23776;51.592;7.180;2023-04-03T00:30:02;8.02;;;3.47;;
37955;SDS011;23776;51.592;7.180;2023-04-03T00:32:29;6.95;;;2.65;;
37955;SDS011;23776;51.592;7.180;2023-04-03T00:34:55;9.32;;;3.55;;
37955;SDS011;23776;51.592;7.180;2023-04-03T00:37:20;6.82;;;3.05;;
37955;SDS011;23776;51.592;7.180;2023-04-03T00:39:46;6.55;;;2.90;;
37955;SDS011;23776;51.592;7.180;2023-04-03T00:42:11;6.93;;;2.65;;
37955;SDS011;23776;51.592;7.180;2023-04-03T00:47:03;5.63;;;2.47;;
37955;SDS011;23776;51.592;7.180;2023-04-03T00:49:31;5.85;;;3.05;;
37955;SDS011;23776;51.592;7.180;2023-04-03T00:51:57;6.30;;;2.60;;
37955;SDS011;23776;51.592;7.180;2023-04-03T00:54:24;7.00;;;2.50;;
37955;SDS011;23776;51.592;7.180;2023-04-03T00:56:51;6.82;;;2.50;;
37955;SDS011;23776;51.592;7.180;2023-04-03T00:59:19;8.52;;;2.67;;
37955;SDS011;23776;51.592;7.180;2023-04-03T01:01:50;6.35;;;2.63;;
37955;SDS011;23776;51.592;7.180;2023-04-03T01:04:30;7.20;;;2.22;;
37955;SDS011;23776;51.592;7.180;2023-04-03T01:07:02;13.30;;;2.30;;
37955;SDS011;23776;51.592;7.180;2023-04-03T01:09:31;6.97;;;2.95;;
37955;SDS011;23776;51.592;7.180;2023-04-03T01:12:17;12.07;;;3.10;;
37955;SDS011;23776;51.592;7.180;2023-04-03T01:14:59;11.90;;;2.45;;
37955;SDS011;23776;51.592;7.180;2023-04-03T01:17:27;6.45;;;2.33;;
37955;SDS011;23776;51.592;7.180;2023-04-03T01:22:48;12.80;;;3.05;;
37955;SDS011;23776;51.592;7.180;2023-04-03T01:25:18;8.25;;;2.47;;
37955;SDS011;23776;51.592;7.180;2023-04-03T01:27:44;14.32;;;3.22;;
37955;SDS011;23776;51.592;7.180;2023-04-03T01:30:10;9.02;;;2.55;;
37955;SDS011;23776;51.592;7.180;2023-04-03T01:32:37;8.30;;;2.47;;
37955;SDS011;23776;51.592;7.180;2023-04-03T01:35:03;7.60;;;2.05;;
37955;SDS011;23776;51.592;7.180;2023-04-03T01:37:29;6.13;;;2.25;;
37955;SDS011;23776;51.592;7.180;2023-04-03T01:39:56;5.85;;;2.03;;
37955;SDS011;23776;51.592;7.180;2023-04-03T01:42:21;4.90;;;1.77;;
37955;SDS011;23776;51.592;7.180;2023-04-03T01:44:47;11.35;;;2.38;;
37955;SDS011;23776;51.592;7.180;2023-04-03T01:47:12;6.53;;;1.98;;
37955;SDS011;23776;51.592;7.180;2023-04-03T01:49:38;8.02;;;2.38;;
37955;SDS011;23776;51.592;7.180;2023-04-03T01:52:04;5.93;;;1.75;;
37955;SDS011;23776;51.592;7.180;2023-04-03T01:54:29;9.23;;;2.00;;
37955;SDS011;23776;51.592;7.180;2023-04-03T01:56:55;10.80;;;2.28;;
37955;SDS011;23776;51.592;7.180;2023-04-03T01:59:20;5.38;;;1.92;;
37955;SDS011;23776;51.592;7.180;2023-04-03T02:01:46;10.50;;;2.10;;
37955;SDS011;23776;51.592;7.180;2023-04-03T02:04:12;6.93;;;2.15;;
37955;SDS011;23776;51.592;7.180;2023-04-03T02:06:38;10.85;;;2.67;;
37955;SDS011;23776;51.592;7.180;2023-04-03T02:09:03;10.98;;;1.95;;
37955;SDS011;23776;51.592;7.180;2023-04-03T02:11:29;5.22;;;1.73;;
37955;SDS011;23776;51.592;7.180;2023-04-03T02:13:55;9.48;;;1.90;;
37955;SDS011;23776;51.592;7.180;2023-04-03T02:16:20;9.85;;;2.13;;
37955;SDS011;23776;51.592;7.180;2023-04-03T02:18:46;7.15;;;2.10;;
37955;SDS011;23776;51.592;7.180;2023-04-03T02:21:12;6.93;;;2.45;;
37955;SDS011;23776;51.592;7.180;2023-04-03T02:23:37;5.93;;;1.70;;
37955;SDS011;23776;51.592;7.180;2023-04-03T02:26:04;8.75;;;1.88;;
37955;SDS011;23776;51.592;7.180;2023-04-03T02:28:36;8.68;;;2.20;;
37955;SDS011;23776;51.592;7.180;2023-04-03T02:31:02;7.57;;;2.40;;
37955;SDS011;23776;51.592;7.180;2023-04-03T02:33:29;6.22;;;2.22;;
37955;SDS011;23776;51.592;7.180;2023-04-03T02:35:55;7.05;;;2.00;;
37955;SDS011;23776;51.592;7.180;2023-04-03T02:38:22;10.38;;;2.00;;
37955;SDS011;23776;51.592;7.180;2023-04-03T02:40:48;8.27;;;1.70;;
37955;SDS011;23776;51.592;7.180;2023-04-03T02:43:13;6.07;;;2.10;;
37955;SDS011;23776;51.592;7.180;2023-04-03T02:45:39;10.75;;;2.08;;
37955;SDS011;23776;51.592;7.180;2023-04-03T02:48:05;4.47;;;1.83;;
37955;SDS011;23776;51.592;7.180;2023-04-03T02:50:30;7.97;;;1.88;;
37955;SDS011;23776;51.592;7.180;2023-04-03T02:52:56;8.77;;;1.85;;
37955;SDS011;23776;51.592;7.180;2023-04-03T02:55:22;9.10;;;2.67;;
37955;SDS011;23776;51.592;7.180;2023-04-03T02:57:47;11.95;;;2.38;;
37955;SDS011;23776;51.592;7.180;2023-04-03T03:00:13;10.75;;;2.10;;
37955;SDS011;23776;51.592;7.180;2023-04-03T03:02:39;6.75;;;2.42;;
37955;SDS011;23776;51.592;7.180;2023-04-03T03:05:05;10.88;;;1.95;;
37955;SDS011;23776;51.592;7.180;2023-04-03T03:07:32;9.70;;;1.90;;
37955;SDS011;23776;51.592;7.180;2023-04-03T03:09:58;9.38;;;1.95;;
37955;SDS011;23776;51.592;7.180;2023-04-03T03:12:23;7.63;;;2.20;;
37955;SDS011;23776;51.592;7.180;2023-04-03T03:14:49;14.88;;;2.65;;
37955;SDS011;23776;51.592;7.180;2023-04-03T03:17:15;4.38;;;2.13;;
37955;SDS011;23776;51.592;7.180;2023-04-03T03:19:41;7.78;;;2.10;;
37955;SDS011;23776;51.592;7.180;2023-04-03T03:22:07;5.82;;;1.85;;
37955;SDS011;23776;51.592;7.180;2023-04-03T03:24:33;6.28;;;1.90;;
37955;SDS011;23776;51.592;7.180;2023-04-03T03:26:58;10.40;;;2.35;;
37955;SDS011;23776;51.592;7.180;2023-04-03T03:29:24;10.57;;;2.35;;
37955;SDS011;23776;51.592;7.180;2023-04-03T03:31:49;8.32;;;2.58;;
37955;SDS011;23776;51.592;7.180;2023-04-03T03:34:15;5.60;;;2.17;;
37955;SDS011;23776;51.592;7.180;2023-04-03T03:36:41;4.63;;;1.75;;
37955;SDS011;23776;51.592;7.180;2023-04-03T03:39:06;6.93;;;1.92;;
37955;SDS011;23776;51.592;7.180;2023-04-03T03:41:32;9.73;;;2.53;;
37955;SDS011;23776;51.592;7.180;2023-04-03T03:43:57;10.63;;;2.40;;
37955;SDS011;23776;51.592;7.180;2023-04-03T03:46:23;7.55;;;2.17;;
37955;SDS011;23776;51.592;7.180;2023-04-03T03:48:49;8.68;;;1.83;;
37955;SDS011;23776;51.592;7.180;2023-04-03T03:51:15;9.18;;;2.30;;
37955;SDS011;23776;51.592;7.180;2023-04-03T03:53:40;12.98;;;2.72;;
37955;SDS011;23776;51.592;7.180;2023-04-03T03:56:06;10.68;;;2.10;;
37955;SDS011;23776;51.592;7.180;2023-04-03T03:58:32;16.58;;;2.28;;
37955;SDS011;23776;51.592;7.180;2023-04-03T04:01:01;8.38;;;2.45;;
37955;SDS011;23776;51.592;7.180;2023-04-03T04:03:28;9.52;;;2.53;;
37955;SDS011;23776;51.592;7.180;2023-04-03T04:05:54;6.75;;;2.17;;
37955;SDS011;23776;51.592;7.180;2023-04-03T04:08:20;10.35;;;2.17;;
37955;SDS011;23776;51.592;7.180;2023-04-03T04:10:45;9.05;;;2.17;;
37955;SDS011;23776;51.592;7.180;2023-04-03T04:13:11;10.93;;;2.33;;
37955;SDS011;23776;51.592;7.180;2023-04-03T04:15:36;9.32;;;2.70;;
37955;SDS011;23776;51.592;7.180;2023-04-03T04:18:02;10.77;;;2.28;;
37955;SDS011;23776;51.592;7.180;2023-04-03T04:20:28;9.90;;;2.58;;
37955;SDS011;23776;51.592;7.180;2023-04-03T04:22:54;8.63;;;1.98;;
37955;SDS011;23776;51.592;7.180;2023-04-03T04:25:19;12.80;;;2.63;;
37955;SDS011;23776;51.592;7.180;2023-04-03T04:27:45;10.38;;;2.88;;
37955;SDS011;23776;51.592;7.180;2023-04-03T04:30:11;7.88;;;2.17;;
37955;SDS011;23776;51.592;7.180;2023-04-03T04:32:38;3.05;;;2.05;;
37955;SDS011;23776;51.592;7.180;2023-04-03T04:35:03;12.70;;;2.10;;
37955;SDS011;23776;51.592;7.180;2023-04-03T04:37:30;14.27;;;2.55;;
37955;SDS011;23776;51.592;7.180;2023-04-03T04:39:56;13.68;;;2.40;;
37955;SDS011;23776;51.592;7.180;2023-04-03T04:42:21;7.50;;;2.63;;
37955;SDS011;23776;51.592;7.180;2023-04-03T04:44:47;6.07;;;2.38;;
37955;SDS011;23776;51.592;7.180;2023-04-03T04:47:13;13.13;;;2.58;;
37955;SDS011;23776;51.592;7.180;2023-04-03T04:49:39;6.95;;;1.95;;
37955;SDS011;23776;51.592;7.180;2023-04-03T04:52:04;8.35;;;2.10;;
37955;SDS011;23776;51.592;7.180;2023-04-03T04:54:30;13.80;;;3.05;;
37955;SDS011;23776;51.592;7.180;2023-04-03T04:56:56;10.68;;;2.10;;
37955;SDS011;23776;51.592;7.180;2023-04-03T04:59:21;8.63;;;2.42;;
37955;SDS011;23776;51.592;7.180;2023-04-03T05:01:47;10.20;;;2.70;;
37955;SDS011;23776;51.592;7.180;2023-04-03T05:04:12;10.23;;;2.38;;
37955;SDS011;23776;51.592;7.180;2023-04-03T05:06:38;9.77;;;2.88;;
37955;SDS011;23776;51.592;7.180;2023-04-03T05:09:04;8.98;;;2.50;;
37955;SDS011;23776;51.592;7.180;2023-04-03T05:11:30;7.60;;;2.65;;
37955;SDS011;23776;51.592;7.180;2023-04-03T05:13:55;13.40;;;3.63;;
37955;SDS011;23776;51.592;7.180;2023-04-03T05:16:21;7.22;;;2.53;;
37955;SDS011;23776;51.592;7.180;2023-04-03T05:18:47;10.02;;;2.97;;
37955;SDS011;23776;51.592;7.180;2023-04-03T05:21:12;18.75;;;2.33;;
37955;SDS011;23776;51.592;7.180;2023-04-03T05:23:38;9.95;;;2.60;;
37955;SDS011;23776;51.592;7.180;2023-04-03T05:26:04;7.68;;;2.40;;
37955;SDS011;23776;51.592;7.180;2023-04-03T05:28:29;8.02;;;2.70;;
37955;SDS011;23776;51.592;7.180;2023-04-03T05:30:56;10.25;;;2.88;;
37955;SDS011;23776;51.592;7.180;2023-04-03T05:33:23;12.90;;;2.72;;
37955;SDS011;23776;51.592;7.180;2023-04-03T05:35:49;9.43;;;2.60;;
37955;SDS011;23776;51.592;7.180;2023-04-03T05:38:15;10.85;;;2.83;;
37955;SDS011;23776;51.592;7.180;2023-04-03T05:40:41;10.63;;;2.35;;
37955;SDS011;23776;51.592;7.180;2023-04-03T05:43:07;9.15;;;2.30;;
37955;SDS011;23776;51.592;7.180;2023-04-03T05:45:32;15.75;;;2.35;;
37955;SDS011;23776;51.592;7.180;2023-04-03T05:47:58;13.98;;;2.67;;
37955;SDS011;23776;51.592;7.180;2023-04-03T05:50:23;6.38;;;2.08;;
37955;SDS011;23776;51.592;7.180;2023-04-03T05:52:49;10.73;;;2.33;;
37955;SDS011;23776;51.592;7.180;2023-04-03T05:55:17;5.65;;;2.22;;
37955;SDS011;23776;51.592;7.180;2023-04-03T05:57:42;12.25;;;2.67;;
37955;SDS011;23776;51.592;7.180;2023-04-03T06:00:08;10.80;;;2.70;;
37955;SDS011;23776;51.592;7.180;2023-04-03T06:02:37;7.32;;;2.15;;
37955;SDS011;23776;51.592;7.180;2023-04-03T06:05:03;12.18;;;2.67;;
37955;SDS011;23776;51.592;7.180;2023-04-03T06:07:29;15.27;;;2.67;;
37955;SDS011;23776;51.592;7.180;2023-04-03T06:09:55;7.82;;;2.97;;
37955;SDS011;23776;51.592;7.180;2023-04-03T06:12:22;5.82;;;2.47;;
37955;SDS011;23776;51.592;7.180;2023-04-03T06:14:48;10.13;;;2.60;;
37955;SDS011;23776;51.592;7.180;2023-04-03T06:17:14;12.07;;;3.05;;
37955;SDS011;23776;51.592;7.180;2023-04-03T06:19:41;13.00;;;2.63;;
37955;SDS011;23776;51.592;7.180;2023-04-03T06:22:07;13.25;;;2.42;;
37955;SDS011;23776;51.592;7.180;2023-04-03T06:24:33;8.52;;;2.65;;
37955;SDS011;23776;51.592;7.180;2023-04-03T06:26:58;13.05;;;3.08;;
37955;SDS011;23776;51.592;7.180;2023-04-03T06:29:24;11.43;;;2.78;;
37955;SDS011;23776;51.592;7.180;2023-04-03T06:31:50;7.97;;;2.10;;
37955;SDS011;23776;51.592;7.180;2023-04-03T06:34:16;7.32;;;2.08;;
37955;SDS011;23776;51.592;7.180;2023-04-03T06:36:43;9.63;;;2.28;;
37955;SDS011;23776;51.592;7.180;2023-04-03T06:39:20;13.20;;;3.08;;
37955;SDS011;23776;51.592;7.180;2023-04-03T06:41:47;9.07;;;2.83;;
37955;SDS011;23776;51.592;7.180;2023-04-03T06:44:14;6.28;;;2.13;;
37955;SDS011;23776;51.592;7.180;2023-04-03T06:46:41;9.45;;;3.15;;
37955;SDS011;23776;51.592;7.180;2023-04-03T06:49:08;9.63;;;2.53;;
37955;SDS011;23776;51.592;7.180;2023-04-03T06:51:34;8.60;;;2.78;;
37955;SDS011;23776;51.592;7.180;2023-04-03T06:54:02;9.45;;;2.15;;
37955;SDS011;23776;51.592;7.180;2023-04-03T06:56:28;4.18;;;2.03;;
37955;SDS011;23776;51.592;7.180;2023-04-03T06:58:54;10.48;;;2.35;;
37955;SDS011;23776;51.592;7.180;2023-04-03T07:01:23;8.93;;;2.78;;
37955;SDS011;23776;51.592;7.180;2023-04-03T07:03:51;17.42;;;2.75;;
37955;SDS011;23776;51.592;7.180;2023-04-03T07:06:17;6.55;;;2.05;;
37955;SDS011;23776;51.592;7.180;2023-04-03T07:08:44;7.50;;;2.10;;
37955;SDS011;23776;51.592;7.180;2023-04-03T07:11:10;13.70;;;2.83;;
37955;SDS011;23776;51.592;7.180;2023-04-03T07:13:37;9.65;;;2.10;;
37955;SDS011;23776;51.592;7.180;2023-04-03T07:16:04;6.97;;;2.08;;
37955;SDS011;23776;51.592;7.180;2023-04-03T07:18:31;8.05;;;2.55;;
37955;SDS011;23776;51.592;7.180;2023-04-03T07:20:57;9.30;;;2.58;;
37955;SDS011;23776;51.592;7.180;2023-04-03T07:23:23;9.27;;;2.33;;
37955;SDS011;23776;51.592;7.180;2023-04-03T07:25:50;9.68;;;2.47;;
37955;SDS011;23776;51.592;7.180;2023-04-03T07:28:17;12.07;;;2.80;;
37955;SDS011;23776;51.592;7.180;2023-04-03T07:30:48;11.15;;;3.00;;
37955;SDS011;23776;51.592;7.180;2023-04-03T07:33:19;6.20;;;2.00;;
37955;SDS011;23776;51.592;7.180;2023-04-03T07:35:46;6.82;;;2.22;;
37955;SDS011;23776;51.592;7.180;2023-04-03T07:38:12;10.35;;;2.53;;
37955;SDS011;23776;51.592;7.180;2023-04-03T07:40:38;6.43;;;2.20;;
37955;SDS011;23776;51.592;7.180;2023-04-03T07:43:04;12.88;;;2.40;;
37955;SDS011;23776;51.592;7.180;2023-04-03T07:45:31;8.05;;;2.05;;
37955;SDS011;23776;51.592;7.180;2023-04-03T07:47:57;8.38;;;2.15;;
37955;SDS011;23776;51.592;7.180;2023-04-03T07:50:22;6.13;;;1.92;;
37955;SDS011;23776;51.592;7.180;2023-04-03T07:52:48;11.40;;;2.30;;
37955;SDS011;23776;51.592;7.180;2023-04-03T07:55:16;6.32;;;2.13;;
37955;SDS011;23776;51.592;7.180;2023-04-03T07:57:41;7.88;;;2.72;;
37955;SDS011;23776;51.592;7.180;2023-04-03T08:00:07;6.88;;;1.92;;
37955;SDS011;23776;51.592;7.180;2023-04-03T08:02:33;11.82;;;2.45;;
37955;SDS011;23776;51.592;7.180;2023-04-03T08:04:59;4.60;;;1.92;;
37955;SDS011;23776;51.592;7.180;2023-04-03T08:07:25;5.43;;;1.75;;
37955;SDS011;23776;51.592;7.180;2023-04-03T08:09:51;10.20;;;2.33;;
37955;SDS011;23776;51.592;7.180;2023-04-03T08:12:17;6.82;;;1.90;;
37955;SDS011;23776;51.592;7.180;2023-04-03T08:14:42;8.65;;;2.55;;
37955;SDS011;23776;51.592;7.180;2023-04-03T08:17:09;9.63;;;2.15;;
37955;SDS011;23776;51.592;7.180;2023-04-03T08:19:37;7.75;;;2.05;;
37955;SDS011;23776;51.592;7.180;2023-04-03T08:22:03;7.00;;;2.13;;
37955;SDS011;23776;51.592;7.180;2023-04-03T08:24:30;11.55;;;2.30;;
37955;SDS011;23776;51.592;7.180;2023-04-03T08:26:56;5.18;;;2.17;;
37955;SDS011;23776;51.592;7.180;2023-04-03T08:29:22;8.88;;;1.80;;
37955;SDS011;23776;51.592;7.180;2023-04-03T08:31:48;11.00;;;2.30;;
37955;SDS011;23776;51.592;7.180;2023-04-03T08:34:15;7.75;;;2.08;;
37955;SDS011;23776;51.592;7.180;2023-04-03T08:36:41;11.13;;;2.25;;
37955;SDS011;23776;51.592;7.180;2023-04-03T08:39:06;8.15;;;2.17;;
37955;SDS011;23776;51.592;7.180;2023-04-03T08:41:34;4.43;;;1.88;;
37955;SDS011;23776;51.592;7.180;2023-04-03T08:44:11;10.93;;;2.55;;
37955;SDS011;23776;51.592;7.180;2023-04-03T08:47:00;6.25;;;2.00;;
37955;SDS011;23776;51.592;7.180;2023-04-03T08:49:40;4.15;;;1.52;;
37955;SDS011;23776;51.592;7.180;2023-04-03T08:52:36;4.43;;;1.63;;
37955;SDS011;23776;51.592;7.180;2023-04-03T08:55:10;5.43;;;1.85;;
37955;SDS011;23776;51.592;7.180;2023-04-03T08:57:48;5.28;;;2.13;;
37955;SDS011;23776;51.592;7.180;2023-04-03T09:00:20;11.55;;;2.25;;
37955;SDS011;23776;51.592;7.180;2023-04-03T09:02:49;7.22;;;1.83;;
37955;SDS011;23776;51.592;7.180;2023-04-03T09:05:24;5.57;;;1.65;;
37955;SDS011;23776;51.592;7.180;2023-04-03T09:13:46;5.35;;;1.85;;
37955;SDS011;23776;51.592;7.180;2023-04-03T09:16:25;5.55;;;1.60;;
37955;SDS011;23776;51.592;7.180;2023-04-03T09:19:06;8.38;;;1.45;;
37955;SDS011;23776;51.592;7.180;2023-04-03T09:21:44;5.10;;;1.40;;
37955;SDS011;23776;51.592;7.180;2023-04-03T09:24:10;11.98;;;1.52;;
37955;SDS011;23776;51.592;7.180;2023-04-03T09:26:41;5.78;;;1.38;;
37955;SDS011;23776;51.592;7.180;2023-04-03T09:29:20;5.97;;;1.35;;
37955;SDS011;23776;51.592;7.180;2023-04-03T09:31:48;10.93;;;1.60;;
37955;SDS011;23776;51.592;7.180;2023-04-03T09:34:28;4.75;;;1.27;;
37955;SDS011;23776;51.592;7.180;2023-04-03T09:37:01;4.33;;;1.60;;
37955;SDS011;23776;51.592;7.180;2023-04-03T09:44:29;7.78;;;1.38;;
37955;SDS011;23776;51.592;7.180;2023-04-03T09:47:00;3.92;;;1.42;;
37955;SDS011;23776;51.592;7.180;2023-04-03T09:49:43;6.57;;;1.50;;
37955;SDS011;23776;51.592;7.180;2023-04-03T09:52:18;3.00;;;1.20;;
37955;SDS011;23776;51.592;7.180;2023-04-03T09:54:45;6.53;;;1.55;;
37955;SDS011;23776;51.592;7.180;2023-04-03T09:57:11;2.60;;;1.20;;
37955;SDS011;23776;51.592;7.180;2023-04-03T09:59:43;6.72;;;1.35;;
37955;SDS011;23776;51.592;7.180;2023-04-03T10:02:34;1.93;;;1.10;;
37955;SDS011;23776;51.592;7.180;2023-04-03T10:05:01;3.65;;;0.88;;
37955;SDS011;23776;51.592;7.180;2023-04-03T10:07:37;3.28;;;1.55;;
37955;SDS011;23776;51.592;7.180;2023-04-03T10:10:24;5.38;;;1.40;;
37955;SDS011;23776;51.592;7.180;2023-04-03T10:13:03;6.78;;;1.50;;
37955;SDS011;23776;51.592;7.180;2023-04-03T10:15:36;1.85;;;0.90;;
37955;SDS011;23776;51.592;7.180;2023-04-03T10:18:30;7.18;;;1.30;;
37955;SDS011;23776;51.592;7.180;2023-04-03T10:26:59;5.75;;;1.08;;
37955;SDS011;23776;51.592;7.180;2023-04-03T10:32:45;4.78;;;0.93;;
37955;SDS011;23776;51.592;7.180;2023-04-03T10:38:26;5.13;;;1.35;;
37955;SDS011;23776;51.592;7.180;2023-04-03T10:46:42;8.77;;;1.63;;
37955;SDS011;23776;51.592;7.180;2023-04-03T10:51:59;3.58;;;1.08;;
37955;SDS011;23776;51.592;7.180;2023-04-03T10:57:26;2.72;;;1.05;;
37955;SDS011;23776;51.592;7.180;2023-04-03T10:59:55;5.82;;;1.23;;
37955;SDS011;23776;51.592;7.180;2023-04-03T11:02:31;3.67;;;1.10;;
37955;SDS011;23776;51.592;7.180;2023-04-03T11:05:06;4.05;;;1.55;;
37955;SDS011;23776;51.592;7.180;2023-04-03T11:07:51;5.85;;;1.10;;
37955;SDS011;23776;51.592;7.180;2023-04-03T11:10:25;8.77;;;1.33;;
37955;SDS011;23776;51.592;7.180;2023-04-03T11:13:01;14.75;;;2.00;;
37955;SDS011;23776;51.592;7.180;2023-04-03T11:15:40;4.00;;;1.58;;
37955;SDS011;23776;51.592;7.180;2023-04-03T11:18:17;4.70;;;1.20;;
37955;SDS011;23776;51.592;7.180;2023-04-03T11:20:56;6.72;;;1.27;;
37955;SDS011;23776;51.592;7.180;2023-04-03T11:23:30;5.88;;;1.25;;
37955;SDS011;23776;51.592;7.180;2023-04-03T11:26:07;5.77;;;1.10;;
37955;SDS011;23776;51.592;7.180;2023-04-03T11:28:41;4.82;;;1.10;;
37955;SDS011;23776;51.592;7.180;2023-04-03T11:36:33;2.97;;;1.15;;
37955;SDS011;23776;51.592;7.180;2023-04-03T11:39:17;3.67;;;1.20;;
37955;SDS011;23776;51.592;7.180;2023-04-03T11:41:48;2.67;;;1.00;;
37955;SDS011;23776;51.592;7.180;2023-04-03T11:44:34;8.07;;;1.45;;
37955;SDS011;23776;51.592;7.180;2023-04-03T11:47:02;2.92;;;1.00;;
37955;SDS011;23776;51.592;7.180;2023-04-03T12:08:24;1.48;;;0.75;;
37955;SDS011;23776;51.592;7.180;2023-04-03T12:16:30;2.45;;;0.98;;
37955;SDS011;23776;51.592;7.180;2023-04-03T12:18:58;6.93;;;1.05;;
37955;SDS011;23776;51.592;7.180;2023-04-03T12:51:09;3.75;;;1.00;;
37955;SDS011;23776;51.592;7.180;2023-04-03T12:53:40;3.63;;;1.20;;
37955;SDS011;23776;51.592;7.180;2023-04-03T12:58:53;6.18;;;1.10;;
37955;SDS011;23776;51.592;7.180;2023-04-03T13:01:23;2.53;;;1.10;;
37955;SDS011;23776;51.592;7.180;2023-04-03T13:03:54;3.42;;;0.88;;
37955;SDS011;23776;51.592;7.180;2023-04-03T13:06:23;6.22;;;1.30;;
37955;SDS011;23776;51.592;7.180;2023-04-03T13:08:53;2.70;;;0.70;;
37955;SDS011;23776;51.592;7.180;2023-04-03T13:11:22;3.65;;;1.30;;
37955;SDS011;23776;51.592;7.180;2023-04-03T13:13:57;2.92;;;1.00;;
37955;SDS011;23776;51.592;7.180;2023-04-03T13:16:25;3.67;;;1.15;;
37955;SDS011;23776;51.592;7.180;2023-04-03T13:18:52;4.32;;;1.10;;
37955;SDS011;23776;51.592;7.180;2023-04-03T13:21:25;4.38;;;1.00;;
37955;SDS011;23776;51.592;7.180;2023-04-03T13:23:57;3.22;;;1.30;;
37955;SDS011;23776;51.592;7.180;2023-04-03T13:26:27;2.83;;;0.95;;
37955;SDS011;23776;51.592;7.180;2023-04-03T13:28:56;4.25;;;0.95;;
37955;SDS011;23776;51.592;7.180;2023-04-03T13:31:32;2.67;;;1.00;;
37955;SDS011;23776;51.592;7.180;2023-04-03T13:42:03;2.85;;;1.05;;
37955;SDS011;23776;51.592;7.180;2023-04-03T13:44:41;3.58;;;1.35;;
37955;SDS011;23776;51.592;7.180;2023-04-03T13:49:37;2.47;;;1.00;;
37955;SDS011;23776;51.592;7.180;2023-04-03T13:52:17;3.28;;;1.10;;
37955;SDS011;23776;51.592;7.180;2023-04-03T13:54:53;4.78;;;1.10;;
37955;SDS011;23776;51.592;7.180;2023-04-03T13:57:22;2.70;;;1.10;;
37955;SDS011;23776;51.592;7.180;2023-04-03T13:59:48;5.30;;;1.20;;
37955;SDS011;23776;51.592;7.180;2023-04-03T14:02:19;3.20;;;0.93;;
37955;SDS011;23776;51.592;7.180;2023-04-03T14:04:49;3.10;;;1.17;;
37955;SDS011;23776;51.592;7.180;2023-04-03T14:07:21;3.47;;;1.33;;
37955;SDS011;23776;51.592;7.180;2023-04-03T14:09:47;5.22;;;1.10;;
37955;SDS011;23776;51.592;7.180;2023-04-03T14:12:27;4.07;;;1.13;;
37955;SDS011;23776;51.592;7.180;2023-04-03T14:14:59;5.03;;;1.23;;
37955;SDS011;23776;51.592;7.180;2023-04-03T14:17:26;2.92;;;1.17;;
37955;SDS011;23776;51.592;7.180;2023-04-03T14:19:53;3.17;;;1.05;;
37955;SDS011;23776;51.592;7.180;2023-04-03T14:22:28;2.30;;;1.20;;
37955;SDS011;23776;51.592;7.180;2023-04-03T14:24:55;2.75;;;0.95;;
37955;SDS011;23776;51.592;7.180;2023-04-03T14:27:23;4.97;;;1.55;;
37955;SDS011;23776;51.592;7.180;2023-04-03T14:29:54;2.47;;;0.90;;
37955;SDS011;23776;51.592;7.180;2023-04-03T14:32:23;4.75;;;1.25;;
37955;SDS011;23776;51.592;7.180;2023-04-03T14:34:50;4.68;;;1.30;;
37955;SDS011;23776;51.592;7.180;2023-04-03T14:37:21;5.32;;;1.45;;
37955;SDS011;23776;51.592;7.180;2023-04-03T14:39:49;4.57;;;1.25;;
37955;SDS011;23776;51.592;7.180;2023-04-03T14:42:19;8.98;;;1.42;;
37955;SDS011;23776;51.592;7.180;2023-04-03T14:44:51;3.00;;;1.55;;
37955;SDS011;23776;51.592;7.180;2023-04-03T14:47:18;3.35;;;1.40;;
37955;SDS011;23776;51.592;7.180;2023-04-03T14:49:46;5.03;;;1.05;;
37955;SDS011;23776;51.592;7.180;2023-04-03T14:52:18;5.32;;;1.40;;
37955;SDS011;23776;51.592;7.180;2023-04-03T14:54:49;2.85;;;1.15;;
37955;SDS011;23776;51.592;7.180;2023-04-03T14:57:17;1.92;;;1.10;;
37955;SDS011;23776;51.592;7.180;2023-04-03T14:59:43;4.13;;;1.50;;
37955;SDS011;23776;51.592;7.180;2023-04-03T15:02:52;4.82;;;0.98;;
37955;SDS011;23776;51.592;7.180;2023-04-03T15:05:01;3.80;;;1.08;;
37955;SDS011;23776;51.592;7.180;2023-04-03T15:07:32;3.42;;;1.05;;
37955;SDS011;23776;51.592;7.180;2023-04-03T15:10:06;3.35;;;1.40;;
37955;SDS011;23776;51.592;7.180;2023-04-03T15:12:42;5.57;;;1.40;;
37955;SDS011;23776;51.592;7.180;2023-04-03T15:15:08;3.92;;;1.40;;
37955;SDS011;23776;51.592;7.180;2023-04-03T15:17:35;3.28;;;1.10;;
37955;SDS011;23776;51.592;7.180;2023-04-03T15:20:01;2.78;;;1.30;;
37955;SDS011;23776;51.592;7.180;2023-04-03T15:22:28;3.97;;;1.38;;
37955;SDS011;23776;51.592;7.180;2023-04-03T15:24:54;5.68;;;1.58;;
37955;SDS011;23776;51.592;7.180;2023-04-03T15:27:20;4.43;;;1.52;;
37955;SDS011;23776;51.592;7.180;2023-04-03T15:29:46;2.17;;;1.10;;
37955;SDS011;23776;51.592;7.180;2023-04-03T15:32:12;4.03;;;1.30;;
37955;SDS011;23776;51.592;7.180;2023-04-03T15:34:38;3.60;;;1.50;;
37955;SDS011;23776;51.592;7.180;2023-04-03T15:37:04;2.35;;;1.20;;
37955;SDS011;23776;51.592;7.180;2023-04-03T15:39:30;4.35;;;1.35;;
37955;SDS011;23776;51.592;7.180;2023-04-03T15:41:56;4.15;;;1.42;;
37955;SDS011;23776;51.592;7.180;2023-04-03T15:44:24;4.68;;;1.20;;
37955;SDS011;23776;51.592;7.180;2023-04-03T15:46:50;2.72;;;1.38;;
37955;SDS011;23776;51.592;7.180;2023-04-03T15:49:16;6.07;;;1.95;;
37955;SDS011;23776;51.592;7.180;2023-04-03T15:51:43;5.20;;;2.38;;
37955;SDS011;23776;51.592;7.180;2023-04-03T15:54:08;6.25;;;2.03;;
37955;SDS011;23776;51.592;7.180;2023-04-03T15:56:34;4.05;;;1.73;;
37955;SDS011;23776;51.592;7.180;2023-04-03T15:59:00;6.28;;;1.35;;
37955;SDS011;23776;51.592;7.180;2023-04-03T16:01:26;4.75;;;1.33;;
37955;SDS011;23776;51.592;7.180;2023-04-03T16:03:51;3.17;;;1.35;;
37955;SDS011;23776;51.592;7.180;2023-04-03T16:06:17;3.78;;;1.08;;
37955;SDS011;23776;51.592;7.180;2023-04-03T16:08:44;3.17;;;1.17;;
37955;SDS011;23776;51.592;7.180;2023-04-03T16:11:11;7.15;;;1.10;;
37955;SDS011;23776;51.592;7.180;2023-04-03T16:13:37;3.65;;;1.60;;
37955;SDS011;23776;51.592;7.180;2023-04-03T16:16:02;2.80;;;1.35;;
37955;SDS011;23776;51.592;7.180;2023-04-03T16:18:29;4.90;;;1.45;;
37955;SDS011;23776;51.592;7.180;2023-04-03T16:20:55;2.03;;;0.98;;
37955;SDS011;23776;51.592;7.180;2023-04-03T16:23:21;2.45;;;1.02;;
37955;SDS011;23776;51.592;7.180;2023-04-03T16:25:48;3.28;;;1.40;;
37955;SDS011;23776;51.592;7.180;2023-04-03T16:28:14;3.40;;;0.98;;
37955;SDS011;23776;51.592;7.180;2023-04-03T16:30:42;1.67;;;1.00;;
37955;SDS011;23776;51.592;7.180;2023-04-03T16:33:09;8.52;;;5.15;;
37955;SDS011;23776;51.592;7.180;2023-04-03T16:35:36;3.70;;;1.33;;
37955;SDS011;23776;51.592;7.180;2023-04-03T16:38:02;3.40;;;1.30;;
37955;SDS011;23776;51.592;7.180;2023-04-03T16:40:27;6.10;;;1.42;;
37955;SDS011;23776;51.592;7.180;2023-04-03T16:42:53;2.72;;;1.10;;
37955;SDS011;23776;51.592;7.180;2023-04-03T16:45:19;2.53;;;1.30;;